Time;durP1;ratioP1;P1;durP2;ratioP2;P2;SDS_P1;SDS_P2;PMS_P1;PMS_P2;Temp;Humidity;BMP_temperature;BMP_pressure;BME280_temperature;BME280_humidity;BME280_pressure;Samples;Min_cycle;Max_cycle;Signal;HPM_P1;HPM_P2
2022/07/04 00:00:06;;;;;;;1.98;0.75;;;;;;;23.10;45.32;101989.50;5015837;28;20025;-70
2022/07/04 00:02:31;;;;;;;4.22;0.90;;;;;;;23.09;45.71;101976.34;5016362;28;20030;-70
2022/07/04 00:04:56;;;;;;;1.73;0.80;;;;;;;23.08;45.52;101978.16;5015114;28;20022;-69
2022/07/04 00:07:22;;;;;;;1.42;0.70;;;;;;;23.08;45.53;101972.84;5016117;28;20488;-70
2022/07/04 00:09:47;;;;;;;1.70;0.68;;;;;;;23.08;45.32;101983.47;5016113;28;20447;-70
2022/07/04 00:12:12;;;;;;;2.13;0.80;;;;;;;23.07;45.68;101972.94;5015125;28;20065;-70
2022/07/04 00:14:39;;;;;;;2.53;0.80;;;;;;;23.08;45.21;101978.16;5015813;28;20032;-70
2022/07/04 00:17:04;;;;;;;1.85;0.70;;;;;;;23.07;45.48;101981.75;5015705;28;20022;-70
2022/07/04 00:19:30;;;;;;;2.65;0.80;;;;;;;23.07;45.50;101964.97;5015093;28;20061;-70
2022/07/04 00:21:55;;;;;;;1.83;0.80;;;;;;;23.07;45.52;101970.28;5015678;28;20388;-69
2022/07/04 00:24:21;;;;;;;2.03;0.85;;;;;;;23.06;45.15;101968.56;5015988;28;20523;-70
2022/07/04 00:26:46;;;;;;;2.75;0.70;;;;;;;23.05;45.14;101967.75;5015156;28;20080;-69
2022/07/04 00:29:11;;;;;;;1.95;0.70;;;;;;;23.05;45.22;101962.44;5015430;28;20501;-69
2022/07/04 00:31:36;;;;;;;1.03;0.63;;;;;;;23.03;45.12;101961.69;5015979;28;20454;-69
2022/07/04 00:34:02;;;;;;;1.25;0.70;;;;;;;23.03;45.10;101967.00;5014853;28;20271;-69
2022/07/04 00:36:27;;;;;;;1.38;0.70;;;;;;;23.04;45.34;101966.06;5015575;28;20128;-69
2022/07/04 00:38:53;;;;;;;1.88;0.70;;;;;;;23.04;45.22;101974.03;5015328;28;20061;-69
2022/07/04 00:41:18;;;;;;;3.22;0.90;;;;;;;23.03;45.45;101969.66;5014836;28;20068;-69
2022/07/04 00:43:43;;;;;;;1.67;0.80;;;;;;;23.03;45.10;101968.84;5015322;28;20037;-69
2022/07/04 00:46:09;;;;;;;1.48;0.80;;;;;;;23.03;44.98;101974.16;5015014;28;20030;-70
2022/07/04 00:48:34;;;;;;;2.58;0.95;;;;;;;23.00;45.14;101961.97;5014781;28;20034;-68
2022/07/04 00:51:00;;;;;;;1.80;0.90;;;;;;;23.00;45.29;101969.94;5015245;28;20076;-69
2022/07/04 00:53:25;;;;;;;2.65;0.82;;;;;;;23.00;45.40;101962.81;5015461;28;20034;-69
2022/07/04 00:55:52;;;;;;;1.83;0.90;;;;;;;23.00;45.39;101967.28;5014835;28;20026;-69
2022/07/04 00:58:22;;;;;;;1.70;0.80;;;;;;;23.00;45.16;101968.13;5015158;28;20034;-69
2022/07/04 01:00:47;;;;;;;1.33;0.80;;;;;;;22.98;45.37;101966.56;5014322;28;20038;-69
2022/07/04 01:03:13;;;;;;;1.58;0.70;;;;;;;22.98;45.34;101972.72;5014910;28;20041;-69
2022/07/04 01:05:40;;;;;;;1.38;0.75;;;;;;;22.98;45.02;101963.91;5014826;28;20033;-69
2022/07/04 01:08:05;;;;;;;1.35;0.65;;;;;;;22.96;44.99;101961.38;5014033;28;20030;-69
2022/07/04 01:10:31;;;;;;;2.03;0.80;;;;;;;22.97;44.91;101957.75;5014798;28;20108;-69
2022/07/04 01:12:57;;;;;;;1.92;0.82;;;;;;;22.96;45.10;101952.56;5014345;28;20026;-69
2022/07/04 01:15:22;;;;;;;1.45;0.73;;;;;;;22.95;44.99;101953.53;5014431;28;20022;-69
2022/07/04 01:17:48;;;;;;;2.53;0.90;;;;;;;22.93;45.05;101948.34;5014603;28;20033;-69
2022/07/04 01:20:14;;;;;;;3.53;1.10;;;;;;;22.94;45.04;101958.00;5014619;28;20044;-69
2022/07/04 01:22:41;;;;;;;1.90;1.00;;;;;;;22.94;45.02;101951.84;5013837;28;20065;-69
2022/07/04 01:25:08;;;;;;;1.77;0.80;;;;;;;22.94;45.03;101941.22;5014187;28;20108;-69
2022/07/04 01:27:33;;;;;;;1.73;0.80;;;;;;;22.95;44.89;101942.91;5014292;28;20025;-69
2022/07/04 01:29:58;;;;;;;1.60;0.80;;;;;;;22.93;44.75;101937.72;5013446;28;20084;-69
2022/07/04 01:32:23;;;;;;;1.57;0.70;;;;;;;22.92;45.11;101929.88;5014556;28;20813;-69
2022/07/04 01:34:49;;;;;;;1.30;1.00;;;;;;;22.90;45.03;101931.81;5014272;28;20289;-69
2022/07/04 01:37:14;;;;;;;1.90;0.90;;;;;;;22.90;45.09;101929.16;5013432;28;20263;-69
2022/07/04 01:39:39;;;;;;;2.42;0.80;;;;;;;22.90;44.93;101935.31;5014254;28;20057;-69
2022/07/04 01:42:05;;;;;;;1.97;0.80;;;;;;;22.88;44.85;101928.47;5013727;28;20155;-69
2022/07/04 01:44:30;;;;;;;1.98;0.93;;;;;;;22.88;45.06;101923.16;5013431;28;20270;-70
2022/07/04 01:46:56;;;;;;;2.55;0.90;;;;;;;22.87;45.11;101924.09;5013789;28;20037;-69
2022/07/04 01:49:21;;;;;;;3.95;1.08;;;;;;;22.86;44.73;101914.44;5014055;28;20033;-69
2022/07/04 01:51:47;;;;;;;1.73;0.80;;;;;;;22.86;44.67;101917.97;5013390;28;20206;-69
2022/07/04 01:54:13;;;;;;;2.63;0.90;;;;;;;22.85;45.08;101921.59;5013851;28;20040;-69
2022/07/04 01:56:40;;;;;;;2.38;0.80;;;;;;;22.83;44.69;101915.56;5013925;28;20100;-69
2022/07/04 01:59:06;;;;;;;2.72;0.90;;;;;;;22.83;45.00;101910.25;5012975;28;20101;-69
2022/07/04 02:01:31;;;;;;;2.47;1.00;;;;;;;22.85;45.01;101912.78;5014204;28;20112;-69
2022/07/04 02:03:58;;;;;;;3.83;0.82;;;;;;;22.84;44.67;101911.91;5012607;28;20488;-69
2022/07/04 02:06:23;;;;;;;1.75;0.90;;;;;;;22.82;44.78;101911.22;5014070;28;20034;-69
2022/07/04 02:13:00;;;;;;;2.17;0.90;;;;;;;22.83;44.82;101916.41;5013545;28;20080;-69
2022/07/04 02:14:19;;;;;;;1.42;0.80;;;;;;;22.84;44.69;101917.22;5013617;28;20057;-69
2022/07/04 02:16:44;;;;;;;1.58;0.70;;;;;;;22.83;44.81;101915.56;5013575;28;20064;-69
2022/07/04 02:19:09;;;;;;;1.38;0.80;;;;;;;22.83;44.50;101907.59;5012478;28;20026;-69
2022/07/04 02:21:35;;;;;;;2.95;1.00;;;;;;;22.80;44.78;101911.34;5013476;28;20393;-69
2022/07/04 02:24:00;;;;;;;1.95;0.93;;;;;;;22.81;44.76;101907.72;5013182;28;20417;-68
2022/07/04 02:26:25;;;;;;;3.00;0.85;;;;;;;22.77;44.63;101905.44;5012700;28;20033;-70
2022/07/04 02:28:52;;;;;;;1.93;0.93;;;;;;;22.81;44.68;101921.00;5013258;28;20065;-69
2022/07/04 02:31:17;;;;;;;2.17;0.90;;;;;;;22.78;44.42;101918.59;5013522;28;20763;-69
2022/07/04 02:33:42;;;;;;;1.58;0.85;;;;;;;22.78;44.49;101917.75;5012842;28;20034;-69
2022/07/04 02:36:08;;;;;;;1.08;0.80;;;;;;;22.78;44.49;101917.75;5012918;28;20042;-69
2022/07/04 02:38:33;;;;;;;2.58;1.00;;;;;;;22.78;44.54;101923.06;5013624;28;20411;-69
2022/07/04 02:40:58;;;;;;;1.35;0.80;;;;;;;22.75;44.64;101926.84;5012459;28;20033;-69
2022/07/04 02:43:23;;;;;;;2.50;0.90;;;;;;;22.75;44.85;101929.50;5013232;28;20033;-69
2022/07/04 02:45:49;;;;;;;1.85;0.85;;;;;;;22.74;44.47;101924.31;5013287;28;20466;-69
2022/07/04 02:48:14;;;;;;;1.70;0.80;;;;;;;22.75;44.51;101918.88;5012429;28;20105;-69
2022/07/04 02:50:39;;;;;;;2.30;1.30;;;;;;;22.73;44.76;101920.81;5013019;28;20397;-69
2022/07/04 02:53:05;;;;;;;2.90;1.00;;;;;;;22.74;44.75;101926.97;5011950;28;20315;-69
2022/07/04 02:55:30;;;;;;;2.42;0.90;;;;;;;22.73;44.63;101918.16;5013210;28;20731;-69
2022/07/04 02:57:55;;;;;;;2.67;1.00;;;;;;;22.73;44.68;101920.81;5012778;28;20030;-71
2022/07/04 03:00:21;;;;;;;1.95;1.00;;;;;;;22.72;44.66;101927.09;5012432;28;20029;-71
2022/07/04 03:02:46;;;;;;;1.90;0.90;;;;;;;22.72;44.46;101931.56;5012680;28;20079;-71
2022/07/04 03:05:11;;;;;;;1.45;0.88;;;;;;;22.72;44.71;101931.56;5012560;28;20018;-72
2022/07/04 03:07:37;;;;;;;1.15;0.80;;;;;;;22.70;44.38;101938.81;5012063;28;20026;-71
2022/07/04 03:10:02;;;;;;;2.05;0.90;;;;;;;22.68;44.57;101936.28;5012754;28;20055;-71
2022/07/04 03:12:27;;;;;;;1.77;0.90;;;;;;;22.68;44.46;101938.94;5012821;28;20026;-71
2022/07/04 03:14:53;;;;;;;2.17;0.88;;;;;;;22.68;44.48;101946.91;5011869;28;20026;-70
2022/07/04 03:17:19;;;;;;;2.92;1.00;;;;;;;22.69;44.55;101956.56;5012812;28;20022;-70
2022/07/04 03:19:44;;;;;;;2.00;0.90;;;;;;;22.68;44.58;101952.22;5012787;28;20492;-70
2022/07/04 03:22:10;;;;;;;2.33;0.93;;;;;;;22.69;44.65;101950.44;5011806;28;20079;-71
2022/07/04 03:24:35;;;;;;;2.50;0.95;;;;;;;22.67;44.84;101947.91;5012841;28;20030;-71
2022/07/04 03:27:01;;;;;;;2.17;1.00;;;;;;;22.68;44.39;101952.22;5012776;28;20061;-71
2022/07/04 03:29:26;;;;;;;1.70;0.93;;;;;;;22.68;44.70;101954.88;5014473;28;20076;-71
2022/07/04 03:31:51;;;;;;;1.80;0.85;;;;;;;22.67;44.49;101957.66;5016875;28;20108;-70
2022/07/04 03:34:17;;;;;;;1.60;0.93;;;;;;;22.66;44.57;101962.13;5016709;28;20026;-70
2022/07/04 03:36:42;;;;;;;3.67;1.65;;;;;;;22.67;44.70;101968.28;5015641;28;20049;-70
2022/07/04 03:39:07;;;;;;;2.10;1.00;;;;;;;22.65;44.70;101960.44;5016419;28;20030;-70
2022/07/04 03:41:33;;;;;;;1.50;0.90;;;;;;;22.66;44.66;101964.78;5016812;28;20022;-71
2022/07/04 03:43:58;;;;;;;2.30;1.25;;;;;;;22.65;44.61;101968.41;5015533;28;20033;-70
2022/07/04 03:46:23;;;;;;;1.48;0.80;;;;;;;22.66;44.73;101972.78;5016605;28;20462;-70
2022/07/04 03:48:49;;;;;;;2.25;0.90;;;;;;;22.63;44.94;101979.16;5016428;28;20432;-70
2022/07/04 03:51:15;;;;;;;1.92;0.93;;;;;;;22.64;44.92;101982.69;5015512;28;20109;-71
2022/07/04 03:53:41;;;;;;;2.15;1.15;;;;;;;22.61;44.63;101977.63;5016570;28;20516;-71
2022/07/04 03:56:08;;;;;;;3.10;1.15;;;;;;;22.60;44.80;101973.28;5015971;28;20033;-70
2022/07/04 03:58:33;;;;;;;3.28;0.95;;;;;;;22.62;44.81;101981.94;5015625;28;20030;-70
2022/07/04 04:01:00;;;;;;;1.55;0.82;;;;;;;22.62;44.68;101984.59;5016109;28;20032;-70
2022/07/04 04:06:09;;;;;;;2.85;1.10;;;;;;;22.61;44.87;101986.44;5015702;28;20504;-70
2022/07/04 04:08:35;;;;;;;2.15;0.93;;;;;;;22.62;44.61;101992.56;5016305;28;20034;-70
2022/07/04 04:11:00;;;;;;;3.28;1.58;;;;;;;22.62;44.66;101984.59;5015015;28;20033;-70
2022/07/04 04:13:26;;;;;;;2.95;1.00;;;;;;;22.61;44.72;101981.13;5016004;28;20030;-70
2022/07/04 04:15:51;;;;;;;1.90;0.90;;;;;;;22.62;44.71;101979.28;5015729;28;20030;-70
2022/07/04 04:18:16;;;;;;;2.93;0.90;;;;;;;22.62;44.82;101984.59;5015181;28;20038;-70
2022/07/04 04:20:42;;;;;;;2.47;0.90;;;;;;;22.62;44.55;101992.56;5015644;28;20283;-71
2022/07/04 04:23:07;;;;;;;1.53;0.80;;;;;;;22.61;44.73;101989.09;5015375;28;20033;-70
2022/07/04 04:25:32;;;;;;;1.95;0.90;;;;;;;22.62;44.62;101992.56;5014957;28;20273;-70
2022/07/04 04:27:58;;;;;;;2.60;1.10;;;;;;;22.61;44.94;102002.38;5015528;28;20069;-70
2022/07/04 04:30:23;;;;;;;2.20;0.90;;;;;;;22.60;44.99;102008.66;5015726;28;20022;-70
2022/07/04 04:32:48;;;;;;;3.00;1.10;;;;;;;22.62;44.80;102000.56;5014947;28;20470;-69
2022/07/04 04:35:13;;;;;;;2.75;0.90;;;;;;;22.59;44.61;102001.66;5015351;28;20295;-70
2022/07/04 04:37:39;;;;;;;2.13;0.93;;;;;;;22.62;45.06;102008.53;5015746;28;20441;-70
2022/07/04 04:40:05;;;;;;;1.45;0.80;;;;;;;22.62;44.80;102011.19;5014490;28;20084;-68
2022/07/04 04:42:30;;;;;;;3.15;1.10;;;;;;;22.61;44.60;102012.16;5015586;28;20109;-70
2022/07/04 04:44:55;;;;;;;1.60;0.80;;;;;;;22.62;44.85;102005.88;5015118;28;20029;-70
2022/07/04 04:47:21;;;;;;;2.45;0.90;;;;;;;22.62;44.89;102006.72;5014626;28;20386;-69
2022/07/04 04:49:47;;;;;;;2.70;0.90;;;;;;;22.63;44.76;101999.59;5015270;28;20068;-69
2022/07/04 04:52:12;;;;;;;3.65;0.90;;;;;;;22.62;45.02;101996.09;5015105;28;20100;-69
2022/07/04 04:54:37;;;;;;;3.70;1.00;;;;;;;22.64;45.08;101995.97;5014667;28;20429;-69
2022/07/04 04:57:03;;;;;;;1.95;1.00;;;;;;;22.63;44.99;101992.44;5014935;28;20454;-69
2022/07/04 04:59:29;;;;;;;3.65;1.00;;;;;;;22.63;45.07;101995.09;5015171;28;20389;-69
2022/07/04 05:01:56;;;;;;;2.83;1.00;;;;;;;22.62;44.92;101989.91;5014037;28;20105;-69
2022/07/04 05:04:21;;;;;;;2.25;1.00;;;;;;;22.64;44.97;101995.97;5014959;28;20099;-69
2022/07/04 05:06:46;;;;;;;1.98;0.80;;;;;;;22.64;44.98;101986.19;5014491;28;20514;-69
2022/07/04 05:09:12;;;;;;;1.60;0.80;;;;;;;22.64;45.30;101985.34;5014881;28;20486;-70
2022/07/04 05:11:37;;;;;;;2.92;0.93;;;;;;;22.64;45.06;101988.84;5015150;28;20033;-69
2022/07/04 05:14:03;;;;;;;2.17;0.90;;;;;;;22.64;45.20;101985.34;5013888;28;20030;-69
2022/07/04 05:16:28;;;;;;;2.47;1.15;;;;;;;22.63;45.16;101984.47;5014907;28;20028;-69
2022/07/04 05:18:53;;;;;;;4.32;1.40;;;;;;;22.66;45.29;101980.75;5014423;28;20025;-69
2022/07/04 05:21:19;;;;;;;2.45;1.08;;;;;;;22.67;45.22;101989.53;5014227;28;20096;-69
2022/07/04 05:23:44;;;;;;;2.20;1.00;;;;;;;22.67;45.32;101984.22;5014711;28;20034;-69
2022/07/04 05:26:09;;;;;;;4.93;1.20;;;;;;;22.65;45.19;101981.69;5014408;28;20026;-69
2022/07/04 05:28:35;;;;;;;2.50;0.93;;;;;;;22.64;45.50;101980.88;5013986;28;20068;-69
2022/07/04 05:31:00;;;;;;;2.65;1.00;;;;;;;22.68;45.18;101980.63;5014230;28;20313;-69
2022/07/04 05:33:25;;;;;;;1.88;0.90;;;;;;;22.69;45.30;101987.63;5014494;28;20065;-69
2022/07/04 05:35:51;;;;;;;3.28;1.00;;;;;;;22.70;45.49;101994.59;5013626;28;20034;-68
2022/07/04 05:38:16;;;;;;;2.60;1.00;;;;;;;22.71;45.71;101993.66;5014535;28;20469;-69
2022/07/04 05:40:41;;;;;;;1.88;0.88;;;;;;;22.73;45.29;101991.69;5014546;28;20295;-69
2022/07/04 05:43:07;;;;;;;3.45;0.90;;;;;;;22.73;45.83;101994.34;5013258;28;20034;-69
2022/07/04 05:45:32;;;;;;;2.85;1.08;;;;;;;22.74;45.61;101999.53;5014237;28;20030;-69
2022/07/04 05:47:57;;;;;;;2.35;0.95;;;;;;;22.73;45.38;102000.53;5014007;28;20021;-70
2022/07/04 05:50:22;;;;;;;2.57;1.00;;;;;;;22.74;45.66;101996.88;5013737;28;20072;-70
2022/07/04 05:52:48;;;;;;;2.58;1.02;;;;;;;22.75;45.75;101993.28;5013683;28;20282;-71
2022/07/04 05:55:13;;;;;;;1.83;0.95;;;;;;;22.77;45.85;101995.81;5014038;28;20022;-70
2022/07/04 05:57:38;;;;;;;3.58;1.20;;;;;;;22.77;45.88;101999.28;5013477;28;20025;-70
2022/07/04 06:00:05;;;;;;;2.70;1.13;;;;;;;22.73;45.60;101995.22;5013882;28;20358;-72
2022/07/04 06:02:30;;;;;;;5.18;1.50;;;;;;;22.71;45.96;102005.09;5013947;28;20280;-72
2022/07/04 06:04:56;;;;;;;3.00;1.10;;;;;;;22.68;46.10;101999.22;5013328;28;20021;-71
2022/07/04 06:07:21;;;;;;;2.17;1.00;;;;;;;22.71;46.22;102018.41;5013977;28;20048;-74
2022/07/04 06:09:46;;;;;;;7.03;1.13;;;;;;;22.73;46.64;102012.94;5014181;28;20030;-71
2022/07/04 06:12:11;;;;;;;5.38;1.50;;;;;;;22.74;46.41;102010.16;5012858;28;20302;-69
2022/07/04 06:14:37;;;;;;;3.58;1.10;;;;;;;22.76;46.56;102010.88;5013791;28;20028;-69
2022/07/04 06:17:02;;;;;;;4.60;1.10;;;;;;;22.79;46.86;102010.63;5012726;28;20018;-68
2022/07/04 06:19:27;;;;;;;2.83;0.90;;;;;;;22.83;46.90;102005.91;5014146;28;20478;-68
2022/07/04 06:21:53;;;;;;;5.70;1.20;;;;;;;22.83;46.92;102006.75;5013546;28;20029;-71
2022/07/04 06:24:18;;;;;;;2.75;1.20;;;;;;;22.83;47.25;102009.41;5013190;28;20037;-67
2022/07/04 06:26:44;;;;;;;3.78;1.00;;;;;;;22.86;47.07;102018.97;5013803;28;20022;-67
2022/07/04 06:29:09;;;;;;;3.35;1.17;;;;;;;22.88;46.81;102021.50;5013174;28;20036;-67
2022/07/04 06:31:34;;;;;;;2.85;1.00;;;;;;;22.90;47.13;102014.22;5012650;28;20036;-68
2022/07/04 06:36:44;;;;;;;2.50;1.08;;;;;;;22.92;47.34;102007.81;5013318;28;20060;-68
2022/07/04 06:39:09;;;;;;;2.65;1.17;;;;;;;22.95;47.25;102009.34;5012588;28;20042;-67
2022/07/04 06:41:35;;;;;;;3.08;1.20;;;;;;;22.98;47.62;102017.91;5013547;28;20033;-67
2022/07/04 06:44:00;;;;;;;3.17;1.08;;;;;;;22.99;47.40;102010.78;5013052;28;20026;-66
2022/07/04 06:46:25;;;;;;;3.07;1.03;;;;;;;23.00;47.46;102013.31;5012793;28;20088;-66
2022/07/04 06:48:51;;;;;;;3.13;1.05;;;;;;;23.01;47.77;102011.50;5012901;28;20274;-66
2022/07/04 06:51:16;;;;;;;2.53;1.08;;;;;;;23.03;47.71;102011.38;5013296;28;20116;-66
2022/07/04 06:53:42;;;;;;;3.75;1.25;;;;;;;23.07;47.45;102023.44;5012229;28;20097;-66
2022/07/04 06:56:07;;;;;;;4.10;1.20;;;;;;;23.07;47.81;102021.63;5012767;28;20524;-66
2022/07/04 06:58:33;;;;;;;3.25;1.08;;;;;;;23.09;47.47;102017.03;5013033;28;20064;-66
2022/07/04 07:00:58;;;;;;;4.82;1.17;;;;;;;23.11;47.58;102008.94;5012005;28;20037;-66
2022/07/04 07:03:23;;;;;;;4.73;1.60;;;;;;;23.11;47.82;102007.13;5012375;28;20072;-68
2022/07/04 07:05:49;;;;;;;4.32;0.90;;;;;;;23.12;47.84;102008.81;5012994;28;20354;-65
2022/07/04 07:08:14;;;;;;;5.30;1.15;;;;;;;23.13;47.65;102005.19;5012215;28;20044;-66
2022/07/04 07:10:42;;;;;;;3.85;1.20;;;;;;;23.12;46.81;102003.50;5013086;28;20108;-66
2022/07/04 07:13:08;;;;;;;4.53;1.90;;;;;;;23.02;45.88;101994.59;5012740;28;20373;-67
2022/07/04 07:15:35;;;;;;;4.53;1.73;;;;;;;22.83;46.12;102000.59;5012698;28;20025;-75
2022/07/04 07:18:01;;;;;;;5.28;2.05;;;;;;;22.60;47.56;101999.84;5013286;28;20030;-73
2022/07/04 07:20:26;;;;;;;7.40;2.28;;;;;;;22.47;47.45;101994.69;5013038;28;20424;-71
2022/07/04 07:22:52;;;;;;;5.35;2.00;;;;;;;22.40;48.02;101982.91;5012939;28;20022;-71
2022/07/04 07:25:17;;;;;;;5.85;2.17;;;;;;;22.35;48.71;101990.38;5014108;28;20393;-72
2022/07/04 07:27:42;;;;;;;5.00;1.73;;;;;;;22.31;48.33;102000.41;5013376;28;20026;-69
2022/07/04 07:30:08;;;;;;;3.83;1.95;;;;;;;22.31;47.31;101997.75;5013032;28;20444;-72
2022/07/04 07:32:34;;;;;;;4.22;1.63;;;;;;;22.26;47.99;102007.88;5016409;28;20049;-76
2022/07/04 07:34:59;;;;;;;4.50;1.60;;;;;;;22.21;47.74;102016.22;5012067;28;20077;-69
2022/07/04 07:37:24;;;;;;;4.63;1.60;;;;;;;22.17;48.25;102022.72;5013419;28;20038;-70
2022/07/04 07:39:50;;;;;;;5.78;1.77;;;;;;;22.15;49.03;102015.88;5013557;28;20026;-74
2022/07/04 07:42:17;;;;;;;5.32;1.73;;;;;;;22.08;46.16;102020.84;5012324;28;20037;-73
2022/07/04 07:44:46;;;;;;;3.83;1.40;;;;;;;22.03;46.12;102015.03;5013447;28;20174;-73
2022/07/04 07:47:15;;;;;;;6.93;1.60;;;;;;;21.99;46.63;102013.59;5013031;28;20025;-72
2022/07/04 07:49:40;;;;;;;5.07;1.40;;;;;;;22.00;47.82;102002.88;5012446;28;20061;-77
2022/07/04 07:52:06;;;;;;;6.38;1.25;;;;;;;22.00;47.26;102004.66;5012614;28;20413;-74
2022/07/04 07:54:31;;;;;;;2.95;1.10;;;;;;;22.00;46.75;101999.34;5012907;28;20030;-73
2022/07/04 07:56:56;;;;;;;4.73;1.40;;;;;;;22.00;46.29;102002.00;5011779;28;20026;-74
2022/07/04 07:59:22;;;;;;;4.77;1.67;;;;;;;21.99;45.25;101989.72;5013462;28;20639;-66
2022/07/04 08:01:47;;;;;;;8.07;2.05;;;;;;;21.96;45.64;101990.78;5013097;28;20279;-68
2022/07/04 08:06:56;;;;;;;4.20;1.48;;;;;;;21.92;46.60;101984.03;5012568;28;20397;-66
2022/07/04 08:09:22;;;;;;;4.63;1.40;;;;;;;21.89;47.44;101990.44;5012608;28;20026;-67
2022/07/04 08:11:47;;;;;;;4.00;1.48;;;;;;;21.87;45.94;102000.34;5011728;28;20480;-73
2022/07/04 08:14:12;;;;;;;3.17;1.27;;;;;;;21.83;45.88;101985.63;5012672;28;20453;-71
2022/07/04 08:16:38;;;;;;;5.28;1.60;;;;;;;21.84;47.15;101989.97;5015246;28;20022;-71
2022/07/04 08:19:03;;;;;;;2.97;1.20;;;;;;;21.82;46.83;101989.22;5015620;28;20022;-64
2022/07/04 08:21:29;;;;;;;3.35;1.40;;;;;;;21.82;46.47;101999.00;5016026;28;20415;-68
2022/07/04 08:23:54;;;;;;;5.63;1.17;;;;;;;21.82;45.85;101999.00;5014978;28;20038;-65
2022/07/04 08:26:20;;;;;;;6.50;2.08;;;;;;;21.83;46.26;102000.72;5015988;28;20045;-63
2022/07/04 08:28:45;;;;;;;2.70;0.90;;;;;;;21.84;46.10;102000.59;5015852;28;20488;-64
2022/07/04 08:31:11;;;;;;;5.88;1.27;;;;;;;21.88;46.34;102003.84;5014860;28;20026;-66
2022/07/04 08:33:36;;;;;;;3.78;1.25;;;;;;;21.93;46.59;102010.44;5015616;28;20026;-68
2022/07/04 08:36:02;;;;;;;3.20;1.00;;;;;;;22.01;46.73;102006.34;5015246;28;20049;-72
2022/07/04 08:38:28;;;;;;;5.68;1.13;;;;;;;22.08;46.73;102008.41;5014868;28;20389;-66
2022/07/04 08:40:57;;;;;;;3.72;0.90;;;;;;;22.20;47.41;102009.22;5015407;28;20017;-68
2022/07/04 08:43:25;;;;;;;3.03;1.00;;;;;;;22.32;47.08;102009.22;5015341;28;20034;-67
2022/07/04 08:45:53;;;;;;;2.35;0.77;;;;;;;22.41;47.11;102014.66;5014571;28;20073;-66
2022/07/04 08:48:23;;;;;;;3.58;0.90;;;;;;;22.52;47.03;102012.91;5015724;28;20026;-66
2022/07/04 08:50:53;;;;;;;3.47;1.00;;;;;;;22.58;47.04;101999.97;5015700;28;20022;-65
2022/07/04 08:53:20;;;;;;;4.38;1.05;;;;;;;22.66;47.03;102011.78;5014685;28;20030;-65
2022/07/04 08:58:33;;;;;;;4.15;1.20;;;;;;;22.70;45.30;102011.41;5015669;28;20093;-66
2022/07/04 09:01:04;;;;;;;3.60;1.10;;;;;;;22.61;44.67;102013.00;5014277;28;20018;-64
2022/07/04 09:03:30;;;;;;;4.35;1.13;;;;;;;22.57;45.90;102013.38;5015076;28;20072;-65
2022/07/04 09:05:56;;;;;;;4.00;1.10;;;;;;;22.52;45.70;102013.75;5013993;28;20113;-66
2022/07/04 09:08:22;;;;;;;4.60;1.70;;;;;;;22.45;45.83;102010.75;5015007;28;20473;-62
2022/07/04 09:10:49;;;;;;;2.92;1.10;;;;;;;22.41;45.18;102005.81;5015233;28;20051;-63
2022/07/04 09:13:17;;;;;;;3.42;1.13;;;;;;;22.38;46.54;102000.75;5014338;28;20056;-64
2022/07/04 09:15:44;;;;;;;2.85;1.20;;;;;;;22.39;46.78;101999.78;5014928;28;20026;-70
2022/07/04 09:18:39;;;;;;;4.45;1.52;;;;;;;22.40;47.34;102007.63;5014702;28;20032;-79
2022/07/04 09:21:05;;;;;;;;;;;;;;;22.45;46.67;102004.63;5005471;28;20512;-70
2022/07/04 09:23:38;;;;;;;4.10;1.35;;;;;;;22.48;46.24;101999.06;5014676;28;20315;-63
2022/07/04 09:26:15;;;;;;;4.00;1.17;;;;;;;22.54;45.91;102008.31;5013597;28;20362;-73
2022/07/04 09:28:44;;;;;;;4.13;1.10;;;;;;;22.60;45.88;102003.34;5013780;28;20137;-72
2022/07/04 09:31:24;;;;;;;3.88;1.13;;;;;;;22.66;45.09;101999.34;5014423;28;20390;-70
2022/07/04 09:33:52;;;;;;;3.13;0.90;;;;;;;22.71;44.56;102007.75;5014515;28;20176;-77
2022/07/04 09:36:26;;;;;;;2.88;1.02;;;;;;;22.73;45.15;102008.50;5014151;28;20054;-72
2022/07/04 09:39:20;;;;;;;4.18;1.10;;;;;;;22.78;44.85;102008.97;5014323;28;20028;-72
2022/07/04 09:41:59;;;;;;;;;;;;;;;22.80;45.67;102012.31;5014391;28;20072;-71
2022/07/04 09:44:29;;;;;;;3.00;1.02;;;;;;;22.78;46.09;101997.47;5014467;28;19913;-72
2022/07/04 09:46:56;;;;;;;3.30;1.05;;;;;;;22.80;44.79;102007.00;5014286;28;20097;-72
2022/07/04 09:49:22;;;;;;;3.60;0.90;;;;;;;22.82;43.91;101998.91;5013684;28;20072;-73
2022/07/04 09:51:50;;;;;;;3.05;1.02;;;;;;;22.86;45.37;102002.16;5014410;28;20050;-68
2022/07/04 09:54:29;;;;;;;5.18;1.13;;;;;;;22.81;45.23;102005.19;5014422;28;20026;-68
2022/07/04 09:56:57;;;;;;;4.88;1.58;;;;;;;22.83;45.13;102001.44;5013382;28;20033;-69
2022/07/04 09:59:23;;;;;;;2.15;0.90;;;;;;;22.86;45.27;102004.81;5014274;28;20049;-68
2022/07/04 10:01:50;;;;;;;2.95;0.98;;;;;;;22.89;45.51;101999.22;5014245;28;20470;-67
2022/07/04 10:04:15;;;;;;;2.15;1.00;;;;;;;22.93;45.81;102004.16;5013260;28;20117;-67
2022/07/04 10:06:43;;;;;;;2.08;0.80;;;;;;;23.00;45.50;102004.50;5014211;28;20356;-68
2022/07/04 10:09:10;;;;;;;2.60;0.85;;;;;;;23.05;45.61;101998.78;5012895;28;20026;-70
2022/07/04 10:11:38;;;;;;;2.75;0.90;;;;;;;23.09;45.67;102008.22;5014037;28;20026;-72
2022/07/04 10:14:05;;;;;;;2.60;0.90;;;;;;;23.11;46.11;102003.63;5013789;28;20029;-69
2022/07/04 10:16:34;;;;;;;3.47;1.00;;;;;;;23.12;46.16;102000.84;5013103;28;20072;-69
2022/07/04 10:19:00;;;;;;;2.05;0.75;;;;;;;23.15;45.91;102000.56;5013711;28;20018;-69
2022/07/04 10:21:25;;;;;;;2.65;1.00;;;;;;;23.17;46.30;101987.16;5013992;28;20109;-71
2022/07/04 10:23:51;;;;;;;5.10;1.10;;;;;;;23.17;45.79;101990.66;5012449;28;20064;-71
2022/07/04 10:26:22;;;;;;;3.75;0.90;;;;;;;23.19;45.78;101995.84;5013709;28;20122;-72
2022/07/04 10:28:49;;;;;;;2.80;0.88;;;;;;;23.20;45.66;101988.72;5013679;28;20022;-69
2022/07/04 10:31:16;;;;;;;3.35;1.05;;;;;;;23.21;45.86;101985.06;5012681;28;20033;-69
2022/07/04 10:33:43;;;;;;;2.67;0.88;;;;;;;23.22;45.51;101984.94;5013614;28;20075;-70
2022/07/04 10:36:20;;;;;;;2.50;1.00;;;;;;;23.22;46.09;101984.09;5012829;28;20049;-69
2022/07/04 10:38:50;;;;;;;3.15;1.30;;;;;;;23.24;46.20;101984.81;5012429;28;20026;-65
2022/07/04 10:41:19;;;;;;;2.50;0.80;;;;;;;23.26;46.19;101978.38;5013446;28;20048;-67
2022/07/04 10:43:47;;;;;;;1.92;0.80;;;;;;;23.28;46.13;101975.59;5013167;28;20461;-65
2022/07/04 10:46:13;;;;;;;4.00;1.10;;;;;;;23.31;46.27;101976.19;5012529;28;20053;-66
2022/07/04 10:49:13;;;;;;;3.58;0.90;;;;;;;23.37;46.19;101969.50;5013215;28;20462;-66
2022/07/04 10:51:42;;;;;;;4.15;1.05;;;;;;;23.38;46.31;101965.84;4971352;28;20033;-67
2022/07/04 10:54:10;;;;;;;3.60;0.95;;;;;;;23.41;46.98;101970.91;5004901;28;20088;-74
2022/07/04 10:56:38;;;;;;;3.78;0.90;;;;;;;23.42;46.65;101959.28;5013324;28;20026;-72
2022/07/04 10:59:16;;;;;;;4.07;1.05;;;;;;;23.43;46.49;101963.66;5012247;28;20097;-74
2022/07/04 11:01:46;;;;;;;3.45;1.10;;;;;;;23.47;46.71;101970.38;5013277;28;20080;-72
2022/07/04 11:04:11;;;;;;;4.47;1.50;;;;;;;23.54;46.51;101958.25;5012718;28;20503;-71
2022/07/04 11:06:38;;;;;;;3.33;0.93;;;;;;;23.58;46.13;101961.47;5012330;28;20108;-69
2022/07/04 11:09:13;;;;;;;4.28;1.00;;;;;;;23.62;46.06;101957.53;5012997;28;20333;-78
2022/07/04 11:11:54;;;;;;;4.72;0.90;;;;;;;23.70;45.96;101954.22;5013041;28;20029;-72
2022/07/04 11:14:35;;;;;;;3.00;1.00;;;;;;;23.75;45.78;101962.66;5012253;28;20072;-72
2022/07/04 11:17:02;;;;;;;2.60;0.95;;;;;;;23.80;45.90;101948.91;5012434;28;20037;-73
2022/07/04 11:19:27;;;;;;;3.50;0.85;;;;;;;23.83;45.55;101949.53;5012460;28;20107;-71
2022/07/04 11:21:56;;;;;;;2.50;0.85;;;;;;;23.90;45.68;101957.81;5012897;28;20469;-72
2022/07/04 11:24:23;;;;;;;2.47;0.90;;;;;;;23.93;45.47;101956.72;5012939;28;20041;-72
2022/07/04 11:26:48;;;;;;;3.47;0.88;;;;;;;23.98;45.69;101957.13;5012438;28;20076;-70
2022/07/04 11:29:14;;;;;;;5.03;0.80;;;;;;;24.01;45.52;101963.03;5012635;28;20034;-72
2022/07/04 11:31:51;;;;;;;3.85;1.20;;;;;;;24.01;45.67;101948.88;5013015;28;20454;-72
2022/07/04 11:34:17;;;;;;;4.00;0.98;;;;;;;24.02;45.59;101946.09;5012122;28;20504;-67
2022/07/04 11:36:45;;;;;;;3.53;1.10;;;;;;;24.04;45.78;101949.44;5012805;28;20136;-70